createdAt,value
2018-03-20T00:00:26.033Z,99944.58
2018-03-20T00:01:31.750Z,99943.72
2018-03-20T00:02:37.452Z,99935.16
2018-03-20T00:03:43.929Z,99936.02
2018-03-20T00:04:49.432Z,99930.88
2018-03-20T00:05:55.231Z,99928.73
2018-03-20T00:07:00.941Z,99927.45
2018-03-20T00:08:06.713Z,99929.16
2018-03-20T00:09:12.421Z,99932.20
2018-03-20T00:10:17.947Z,99931.77
2018-03-20T00:11:24.504Z,99937.77
2018-03-20T00:12:30.996Z,99935.66
2018-03-20T00:13:36.713Z,99933.09
2018-03-20T00:14:43.182Z,99931.81
2018-03-20T00:15:48.889Z,99938.23
2018-03-20T00:16:54.625Z,99937.38
2018-03-20T00:18:01.097Z,99930.09
2018-03-20T00:19:07.566Z,99937.38
2018-03-20T00:20:14.027Z,99932.23
2018-03-20T00:21:19.734Z,99930.10
2018-03-20T00:22:26.232Z,99926.67
2018-03-20T00:23:31.940Z,99927.53
2018-03-20T00:24:37.653Z,99928.81
2018-03-20T00:25:43.389Z,99931.84
2018-03-20T00:26:49.099Z,99926.25
2018-03-20T00:27:54.830Z,99927.56
2018-03-20T00:29:00.540Z,99925.82
2018-03-20T00:30:05.699Z,99924.57
2018-03-20T00:31:12.269Z,99924.14
2018-03-20T00:32:17.989Z,99920.29
2018-03-20T00:33:24.308Z,99923.28
2018-03-20T00:34:30.028Z,99922.43
2018-03-20T00:35:35.807Z,99925.86
2018-03-20T00:36:41.309Z,99922.44
2018-03-20T00:37:47.020Z,99924.61
2018-03-20T00:38:52.750Z,99920.75
2018-03-20T00:39:58.457Z,99927.17
2018-03-20T00:41:04.177Z,99912.19
2018-03-20T00:42:10.107Z,99917.33
2018-03-20T00:43:15.824Z,99919.05
2018-03-20T00:44:21.548Z,99918.64
2018-03-20T00:45:28.028Z,99916.94
2018-03-20T00:46:33.730Z,99914.37
2018-03-20T00:47:39.438Z,99917.36
2018-03-20T00:48:45.148Z,99917.80
2018-03-20T00:49:50.857Z,99913.94
2018-03-20T00:50:56.563Z,99908.80
2018-03-20T00:52:02.258Z,99912.23
2018-03-20T00:53:07.984Z,99910.94
2018-03-20T00:54:13.683Z,99908.38
2018-03-20T00:55:19.393Z,99911.38
2018-03-20T00:56:24.905Z,99904.95
2018-03-20T00:57:31.362Z,99902.84
2018-03-20T00:58:37.840Z,99904.98
2018-03-20T00:59:43.543Z,99906.27
2018-03-20T01:00:49.271Z,99900.70
2018-03-20T01:01:54.970Z,99906.27
2018-03-20T01:03:00.683Z,99912.27
2018-03-20T01:04:07.172Z,99909.70
2018-03-20T01:05:12.896Z,99904.98
2018-03-20T01:06:19.056Z,99904.16
2018-03-20T01:07:24.765Z,99907.59
2018-03-20T01:08:31.241Z,99901.17
2018-03-20T01:09:36.712Z,99907.16
2018-03-20T01:10:42.418Z,99905.88
2018-03-20T01:11:48.954Z,99901.56
2018-03-20T01:12:54.650Z,99896.86
2018-03-20T01:14:00.348Z,99900.28
2018-03-20T01:15:06.813Z,99901.14
2018-03-20T01:16:13.337Z,99903.73
2018-03-20T01:17:19.070Z,99902.45
2018-03-20T01:18:25.056Z,99900.74
2018-03-20T01:19:31.403Z,99900.34
2018-03-20T01:20:37.873Z,99905.48
2018-03-20T01:21:44.413Z,99898.20
2018-03-20T01:22:50.124Z,99900.34
2018-03-20T01:23:55.836Z,99898.67
2018-03-20T01:25:01.537Z,99899.52
2018-03-20T01:26:07.236Z,99901.23
2018-03-20T01:27:12.966Z,99897.81
2018-03-20T01:28:18.873Z,99898.27
2018-03-20T01:29:25.349Z,99896.10
2018-03-20T01:30:31.089Z,99890.97
2018-03-20T01:31:37.548Z,99893.53
2018-03-20T01:32:43.285Z,99895.25
2018-03-20T01:33:49.749Z,99899.09
2018-03-20T01:34:55.461Z,99895.70
2018-03-20T01:36:01.165Z,99891.86
2018-03-20T01:37:06.861Z,99899.98
2018-03-20T01:38:12.616Z,99894.00
2018-03-20T01:39:18.316Z,99890.54
2018-03-20T01:40:24.788Z,99892.28
2018-03-20T01:41:31.370Z,99892.28
2018-03-20T01:42:37.084Z,99888.44
2018-03-20T01:43:42.805Z,99899.56
2018-03-20T01:44:48.509Z,99895.25
2018-03-20T01:45:54.212Z,99896.53
2018-03-20T01:47:00.681Z,99892.68
2018-03-20T01:48:06.398Z,99892.68
2018-03-20T01:49:12.172Z,99890.11
2018-03-20T01:50:17.872Z,99892.28
2018-03-20T01:51:23.581Z,99896.13
2018-03-20T01:52:29.355Z,99894.42
2018-03-20T01:53:35.261Z,99888.01
2018-03-20T01:54:41.052Z,99891.86
2018-03-20T01:55:46.768Z,99888.41
2018-03-20T01:56:52.503Z,99890.54
2018-03-20T01:57:58.402Z,99889.69
2018-03-20T01:59:04.084Z,99889.72
2018-03-20T02:00:09.818Z,99885.02
2018-03-20T02:01:15.529Z,99888.86
2018-03-20T02:02:21.247Z,99885.44
2018-03-20T02:03:26.933Z,99886.30
2018-03-20T02:04:32.643Z,99890.14
2018-03-20T02:05:38.358Z,99888.44
2018-03-20T02:06:44.076Z,99880.73
2018-03-20T02:07:49.778Z,99888.44
2018-03-20T02:08:55.485Z,99885.05
2018-03-20T02:10:01.970Z,99890.57
2018-03-20T02:11:08.522Z,99886.75
2018-03-20T02:12:14.984Z,99883.77
2018-03-20T02:13:20.684Z,99884.19
2018-03-20T02:14:27.173Z,99880.38
2018-03-20T02:15:33.660Z,99876.98
2018-03-20T02:16:39.363Z,99877.86
2018-03-20T02:17:45.856Z,99867.59
2018-03-20T02:18:51.553Z,99871.87
2018-03-20T02:19:57.256Z,99873.16
2018-03-20T02:21:02.982Z,99874.44
2018-03-20T02:22:08.680Z,99871.87
2018-03-20T02:23:15.145Z,99868.06
2018-03-20T02:24:21.625Z,99873.19
2018-03-20T02:25:27.327Z,99869.31
2018-03-20T02:26:33.062Z,99869.28
2018-03-20T02:27:38.761Z,99871.45
2018-03-20T02:28:44.466Z,99868.88
2018-03-20T02:29:50.940Z,99869.34
2018-03-20T02:30:56.676Z,99864.64
2018-03-20T02:32:03.163Z,99864.23
2018-03-20T02:33:08.890Z,99868.52
2018-03-20T02:34:14.631Z,99865.09
2018-03-20T02:35:20.373Z,99858.25
2018-03-20T02:36:26.075Z,99869.40
2018-03-20T02:37:32.675Z,99869.39
2018-03-20T02:38:38.380Z,99863.41
2018-03-20T02:39:44.864Z,99863.41
2018-03-20T02:40:50.562Z,99869.00
2018-03-20T02:41:56.474Z,99875.41
2018-03-20T02:43:02.204Z,99867.29
2018-03-20T02:44:07.915Z,99866.85
2018-03-20T02:45:13.608Z,99871.16
2018-03-20T02:46:23.428Z,99872.45
2018-03-20T02:47:29.152Z,99871.13
2018-03-20T02:48:34.886Z,99875.44
2018-03-20T02:49:40.596Z,99872.41
2018-03-20T02:50:46.302Z,99878.42
2018-03-20T02:51:52.018Z,99870.31
2018-03-20T02:52:57.401Z,99883.98
2018-03-20T02:54:03.125Z,99878.42
2018-03-20T02:55:08.851Z,99875.44
2018-03-20T02:56:14.566Z,99870.73
2018-03-20T02:57:20.265Z,99872.47
2018-03-20T02:58:25.969Z,99874.18
2018-03-20T02:59:31.681Z,99875.00
2018-03-20T03:00:37.394Z,99881.84
2018-03-20T03:01:43.101Z,99882.27
2018-03-20T03:02:49.005Z,99878.00
2018-03-20T03:03:54.800Z,99875.86
2018-03-20T03:05:00.513Z,99878.87
2018-03-20T03:06:06.229Z,99872.86
2018-03-20T03:07:11.960Z,99869.90
2018-03-20T03:08:18.448Z,99870.36
2018-03-20T03:09:24.216Z,99867.78
2018-03-20T03:10:29.965Z,99869.09
2018-03-20T03:11:35.677Z,99862.68
2018-03-20T03:12:41.368Z,99863.56
2018-03-20T03:13:47.072Z,99859.71
2018-03-20T03:14:52.587Z,99864.41
2018-03-20T03:15:58.308Z,99861.45
2018-03-20T03:17:04.021Z,99858.86
2018-03-20T03:18:09.714Z,99861.02
2018-03-20T03:19:15.449Z,99859.73
2018-03-20T03:20:21.161Z,99860.19
2018-03-20T03:21:27.657Z,99867.88
2018-03-20T03:22:33.403Z,99861.91
2018-03-20T03:23:39.102Z,99855.50
2018-03-20T03:24:45.565Z,99858.50
2018-03-20T03:25:52.024Z,99861.06
2018-03-20T03:26:57.744Z,99858.09
2018-03-20T03:28:03.442Z,99862.36
2018-03-20T03:29:09.154Z,99861.07
2018-03-20T03:30:14.845Z,99869.61
2018-03-20T03:31:20.550Z,99865.80
2018-03-20T03:32:26.301Z,99864.09
2018-03-20T03:33:31.998Z,99869.21
2018-03-20T03:34:37.916Z,99868.78
2018-03-20T03:35:43.636Z,99865.36
2018-03-20T03:36:49.328Z,99864.50
2018-03-20T03:37:55.826Z,99865.38
2018-03-20T03:39:01.553Z,99867.52
2018-03-20T03:40:07.483Z,99870.94
2018-03-20T03:41:13.940Z,99872.64
2018-03-20T03:42:19.649Z,99866.66
2018-03-20T03:43:25.364Z,99859.42
2018-03-20T03:44:31.081Z,99861.98
2018-03-20T03:45:36.785Z,99863.69
2018-03-20T03:46:42.480Z,99854.72
2018-03-20T03:47:48.187Z,99859.41
2018-03-20T03:48:53.904Z,99856.87
2018-03-20T03:50:00.372Z,99859.00
2018-03-20T03:51:05.513Z,99859.85
2018-03-20T03:52:11.222Z,99866.26
2018-03-20T03:53:16.917Z,99867.56
2018-03-20T03:54:22.646Z,99859.02
2018-03-20T03:55:28.355Z,99863.72
2018-03-20T03:56:34.832Z,99862.41
2018-03-20T03:57:40.552Z,99857.31
2018-03-20T03:58:47.033Z,99856.91
2018-03-20T03:59:52.760Z,99857.33
2018-03-20T04:00:58.518Z,99858.61
2018-03-20T04:02:04.221Z,99848.78
2018-03-20T04:03:09.924Z,99855.20
2018-03-20T04:04:15.632Z,99858.16
2018-03-20T04:05:21.354Z,99858.17
2018-03-20T04:06:27.065Z,99860.75
2018-03-20T04:07:32.803Z,99854.77
2018-03-20T04:08:38.523Z,99861.61
2018-03-20T04:09:44.228Z,99859.89
2018-03-20T04:10:49.968Z,99866.73
2018-03-20T04:11:55.493Z,99862.44
2018-03-20T04:13:01.962Z,99867.56
2018-03-20T04:14:07.677Z,99859.45
2018-03-20T04:15:14.149Z,99859.45
2018-03-20T04:16:20.634Z,99854.33
2018-03-20T04:17:26.343Z,99854.76
2018-03-20T04:18:32.818Z,99859.46
2018-03-20T04:19:38.540Z,99856.90
2018-03-20T04:20:44.830Z,99849.63
2018-03-20T04:21:50.252Z,99849.20
2018-03-20T04:22:56.541Z,99847.92
2018-03-20T04:24:02.285Z,99841.97
2018-03-20T04:25:08.017Z,99842.82
2018-03-20T04:26:13.725Z,99843.66
2018-03-20T04:27:20.214Z,99834.27
2018-03-20T04:28:25.916Z,99838.94
2018-03-20T04:29:32.383Z,99844.06
2018-03-20T04:30:38.092Z,99834.72
2018-03-20T04:31:43.788Z,99834.72
2018-03-20T04:32:49.526Z,99833.83
2018-03-20T04:33:55.247Z,99829.56
2018-03-20T04:35:00.961Z,99836.41
2018-03-20T04:36:06.656Z,99835.12
2018-03-20T04:37:12.394Z,99834.27
2018-03-20T04:38:18.447Z,99835.98
2018-03-20T04:39:23.964Z,99832.56
2018-03-20T04:40:29.680Z,99835.95
2018-03-20T04:41:36.149Z,99831.69
2018-03-20T04:42:41.861Z,99828.27
2018-03-20T04:43:48.612Z,99832.95
2018-03-20T04:44:54.302Z,99832.94
2018-03-20T04:46:00.012Z,99829.95
2018-03-20T04:47:06.474Z,99826.08
2018-03-20T04:48:13.395Z,99831.64
2018-03-20T04:49:19.276Z,99831.19
2018-03-20T04:50:25.765Z,99831.14
2018-03-20T04:51:31.477Z,99832.41
2018-03-20T04:52:37.176Z,99836.23
2018-03-20T04:53:42.869Z,99825.52
2018-03-20T04:54:49.369Z,99821.68
2018-03-20T04:55:55.090Z,99826.32
2018-03-20T04:57:00.601Z,99821.59
2018-03-20T04:58:07.077Z,99823.70
2018-03-20T04:59:12.838Z,99827.13
2018-03-20T05:00:18.716Z,99822.81
2018-03-20T05:01:24.417Z,99823.64
2018-03-20T05:02:34.834Z,99833.84
2018-03-20T05:03:40.764Z,99835.06
2018-03-20T05:04:46.485Z,99826.05
2018-03-20T05:05:52.188Z,99835.06
2018-03-20T05:06:57.934Z,99827.75
2018-03-20T05:08:03.645Z,99830.68
2018-03-20T05:09:10.108Z,99825.11
2018-03-20T05:10:16.588Z,99828.97
2018-03-20T05:11:23.139Z,99828.93
2018-03-20T05:12:29.597Z,99835.73
2018-03-20T05:13:35.297Z,99836.16
2018-03-20T05:14:41.034Z,99830.20
2018-03-20T05:15:46.537Z,99831.92
2018-03-20T05:16:51.851Z,99832.78
2018-03-20T05:17:57.792Z,99832.31
2018-03-20T05:19:15.193Z,99829.70
2018-03-20T05:20:26.952Z,99827.52
2018-03-20T05:23:16.368Z,99817.20
2018-03-20T05:24:21.942Z,99828.72
2018-03-20T05:25:27.609Z,99825.25
2018-03-20T05:26:33.133Z,99819.69
2018-03-20T05:27:38.689Z,99817.92
2018-03-20T05:28:44.996Z,99817.41
2018-03-20T05:29:50.575Z,99817.41
2018-03-20T05:30:56.111Z,99812.28
2018-03-20T05:32:01.621Z,99812.74
2018-03-20T05:33:07.143Z,99810.94
2018-03-20T05:34:12.701Z,99810.50
2018-03-20T05:35:18.216Z,99822.02
2018-03-20T05:36:23.728Z,99819.45
2018-03-20T05:37:29.258Z,99816.88
2018-03-20T05:38:34.802Z,99819.45
2018-03-20T05:39:41.079Z,99821.97
2018-03-20T05:40:46.588Z,99820.27
2018-03-20T05:41:52.154Z,99818.50
2018-03-20T05:42:58.586Z,99825.67
2018-03-20T05:44:04.142Z,99823.05
2018-03-20T05:45:09.650Z,99819.61
2018-03-20T05:46:15.158Z,99819.23
2018-03-20T05:47:26.976Z,99819.67
2018-03-20T05:48:38.096Z,99822.20
2018-03-20T05:51:32.945Z,99816.99
2018-03-20T05:52:38.473Z,99808.42
2018-03-20T05:53:44.197Z,99811.00
2018-03-20T05:54:50.674Z,99813.56
2018-03-20T05:55:56.416Z,99819.08
2018-03-20T05:57:02.130Z,99817.37
2018-03-20T05:58:08.588Z,99817.37
2018-03-20T05:59:15.085Z,99824.60
2018-03-20T06:00:20.799Z,99820.78
2018-03-20T06:01:26.336Z,99823.80
2018-03-20T06:02:32.060Z,99826.78
2018-03-20T06:03:37.755Z,99822.88
2018-03-20T06:04:43.446Z,99827.97
2018-03-20T06:05:49.946Z,99825.37
2018-03-20T06:06:55.641Z,99826.98
2018-03-20T06:08:02.110Z,99831.59
2018-03-20T06:09:08.576Z,99831.47
2018-03-20T06:10:14.268Z,99828.89
2018-03-20T06:11:20.055Z,99830.16
2018-03-20T06:12:26.308Z,99829.24
2018-03-20T06:13:32.021Z,99830.55
2018-03-20T06:14:37.728Z,99829.30
2018-03-20T06:15:43.415Z,99832.25
2018-03-20T06:16:49.736Z,99831.38
2018-03-20T06:17:55.429Z,99840.27
2018-03-20T06:19:01.166Z,99840.62
2018-03-20T06:20:07.630Z,99839.64
2018-03-20T06:21:13.343Z,99842.19
2018-03-20T06:22:19.070Z,99839.55
2018-03-20T06:23:24.777Z,99847.27
2018-03-20T06:24:30.498Z,99842.94
2018-03-20T06:25:36.202Z,99848.52
2018-03-20T06:26:41.904Z,99845.92
2018-03-20T06:27:47.915Z,99845.44
2018-03-20T06:28:54.377Z,99855.31
2018-03-20T06:30:00.073Z,99850.16
2018-03-20T06:31:05.785Z,99856.14
2018-03-20T06:32:11.507Z,99856.87
2018-03-20T06:33:17.241Z,99855.14
2018-03-20T06:34:22.957Z,99862.44
2018-03-20T06:35:28.665Z,99859.87
2018-03-20T06:36:34.369Z,99862.43
2018-03-20T06:37:40.103Z,99861.15
2018-03-20T06:38:45.848Z,99868.81
2018-03-20T06:39:51.555Z,99865.41
2018-03-20T06:40:57.315Z,99866.73
2018-03-20T06:42:03.025Z,99865.09
2018-03-20T06:43:08.721Z,99865.58
2018-03-20T06:44:14.446Z,99864.67
2018-03-20T06:45:20.189Z,99868.89
2018-03-20T06:46:25.906Z,99870.52
2018-03-20T06:47:31.609Z,99868.72
2018-03-20T06:48:37.317Z,99873.81
2018-03-20T06:49:43.045Z,99874.70
2018-03-20T06:50:48.760Z,99877.39
2018-03-20T06:51:55.249Z,99881.19
2018-03-20T06:53:00.957Z,99880.84
2018-03-20T06:54:06.673Z,99883.41
2018-03-20T06:55:12.415Z,99882.48
2018-03-20T06:56:18.120Z,99885.42
2018-03-20T06:57:23.828Z,99884.11
2018-03-20T06:58:30.298Z,99886.64
2018-03-20T06:59:36.822Z,99882.13
2018-03-20T07:00:42.710Z,99886.36
2018-03-20T07:01:48.229Z,99885.98
2018-03-20T07:02:54.699Z,99882.13
2018-03-20T07:04:00.415Z,99888.91
2018-03-20T07:05:06.905Z,99883.67
2018-03-20T07:06:13.101Z,99887.07
2018-03-20T07:07:18.989Z,99886.27
2018-03-20T07:08:25.465Z,99890.06
2018-03-20T07:09:31.189Z,99885.33
2018-03-20T07:10:37.657Z,99882.77
2018-03-20T07:11:43.421Z,99883.34
2018-03-20T07:12:49.112Z,99879.55
2018-03-20T07:13:54.812Z,99882.11
2018-03-20T07:15:00.525Z,99880.77
2018-03-20T07:16:06.231Z,99876.48
2018-03-20T07:17:12.857Z,99877.84
2018-03-20T07:18:18.569Z,99882.13
2018-03-20T07:19:24.265Z,99881.69
2018-03-20T07:20:30.551Z,99881.28
2018-03-20T07:21:36.260Z,99874.81
2018-03-20T07:22:42.017Z,99878.55
2018-03-20T07:23:48.484Z,99874.17
2018-03-20T07:24:54.968Z,99883.25
2018-03-20T07:26:00.682Z,99871.74
2018-03-20T07:27:07.349Z,99882.06
2018-03-20T07:28:13.105Z,99878.55
2018-03-20T07:29:18.829Z,99881.25
2018-03-20T07:30:24.547Z,99885.39
2018-03-20T07:31:30.264Z,99886.56
2018-03-20T07:32:35.961Z,99889.14
2018-03-20T07:33:41.685Z,99882.24
2018-03-20T07:34:47.439Z,99881.33
2018-03-20T07:35:53.131Z,99890.83
2018-03-20T07:36:58.819Z,99878.76
2018-03-20T07:38:04.514Z,99881.69
2018-03-20T07:39:10.277Z,99884.19
2018-03-20T07:40:16.124Z,99876.86
2018-03-20T07:41:22.598Z,99884.53
2018-03-20T07:42:29.046Z,99888.06
2018-03-20T07:43:34.756Z,99888.04
2018-03-20T07:44:40.486Z,99885.03
2018-03-20T07:45:46.170Z,99889.69
2018-03-20T07:46:51.853Z,99893.55
2018-03-20T07:47:57.549Z,99897.47
2018-03-20T07:49:04.000Z,99891.96
2018-03-20T07:50:10.510Z,99893.64
2018-03-20T07:51:16.201Z,99890.17
2018-03-20T07:52:22.673Z,99890.19
2018-03-20T07:53:28.363Z,99884.67
2018-03-20T07:54:33.871Z,99888.97
2018-03-20T07:55:39.479Z,99886.46
2018-03-20T07:56:45.385Z,99889.63
2018-03-20T07:57:51.085Z,99895.58
2018-03-20T07:58:56.792Z,99888.77
2018-03-20T08:00:02.487Z,99890.05
2018-03-20T08:01:08.209Z,99890.47
2018-03-20T08:02:13.911Z,99894.80
2018-03-20T08:03:19.604Z,99891.83
2018-03-20T08:04:26.079Z,99892.14
2018-03-20T08:05:31.770Z,99890.77
2018-03-20T08:06:38.380Z,99896.69
2018-03-20T08:07:44.075Z,99895.27
2018-03-20T08:08:50.545Z,99895.70
2018-03-20T08:09:57.012Z,99894.83
2018-03-20T08:11:02.803Z,99896.48
2018-03-20T08:12:08.522Z,99896.91
2018-03-20T08:13:14.289Z,99904.55
2018-03-20T08:14:20.192Z,99901.02
2018-03-20T08:15:26.127Z,99899.15
2018-03-20T08:16:31.837Z,99905.02
2018-03-20T08:17:38.312Z,99901.37
2018-03-20T08:18:43.767Z,99909.88
2018-03-20T08:19:49.459Z,99908.87
2018-03-20T08:20:55.936Z,99910.05
2018-03-20T08:22:02.396Z,99912.55
2018-03-20T08:23:08.125Z,99904.45
2018-03-20T08:24:14.605Z,99908.16
2018-03-20T08:25:21.052Z,99911.94
2018-03-20T08:26:26.752Z,99911.31
2018-03-20T08:27:32.461Z,99913.73
2018-03-20T08:28:38.185Z,99908.78
2018-03-20T08:29:43.872Z,99910.91
2018-03-20T08:30:49.599Z,99904.59
2018-03-20T08:31:56.420Z,99910.03
2018-03-20T08:33:02.120Z,99905.45
2018-03-20T08:34:07.846Z,99901.19
2018-03-20T08:35:13.558Z,99909.11
2018-03-20T08:36:19.254Z,99906.29
2018-03-20T08:37:24.940Z,99912.78
2018-03-20T08:38:30.676Z,99906.94
2018-03-20T08:39:36.384Z,99903.69
2018-03-20T08:40:43.172Z,99902.31
2018-03-20T08:41:48.545Z,99907.77
2018-03-20T08:42:54.339Z,99909.81
2018-03-20T08:44:00.038Z,99906.80
2018-03-20T08:45:05.744Z,99911.56
2018-03-20T08:46:11.449Z,99909.64
2018-03-20T08:47:17.912Z,99908.23
2018-03-20T08:48:24.392Z,99908.61
2018-03-20T08:49:30.103Z,99909.99
2018-03-20T08:50:36.580Z,99908.66
2018-03-20T08:51:42.523Z,99913.61
2018-03-20T08:52:49.041Z,99912.73
2018-03-20T08:53:54.747Z,99912.86
2018-03-20T08:55:00.435Z,99919.45
2018-03-20T08:56:06.921Z,99919.56
2018-03-20T08:57:12.616Z,99922.59
2018-03-20T08:58:18.304Z,99926.16
2018-03-20T08:59:24.018Z,99921.84
2018-03-20T09:00:30.520Z,99920.11
2018-03-20T09:05:03.085Z,99924.28
2018-03-20T09:06:09.539Z,99925.50
2018-03-20T09:07:15.828Z,99919.73
2018-03-20T09:08:21.534Z,99922.07
2018-03-20T09:09:28.010Z,99925.73
2018-03-20T09:10:33.708Z,99925.16
2018-03-20T09:11:39.424Z,99925.50
2018-03-20T09:12:45.129Z,99922.60
2018-03-20T09:13:50.832Z,99929.08
2018-03-20T09:14:56.557Z,99932.37
2018-03-20T09:16:03.752Z,99937.33
2018-03-20T09:17:09.449Z,99934.70
2018-03-20T09:18:15.186Z,99935.02
2018-03-20T09:19:20.885Z,99940.45
2018-03-20T09:20:27.358Z,99939.14
2018-03-20T09:21:33.822Z,99934.08
2018-03-20T09:22:39.516Z,99936.87
2018-03-20T09:23:45.236Z,99939.07
2018-03-20T09:24:50.943Z,99945.09
2018-03-20T09:25:56.653Z,99943.25
2018-03-20T09:27:03.121Z,99944.45
2018-03-20T09:28:09.588Z,99944.33
2018-03-20T09:29:16.066Z,99948.22
2018-03-20T09:30:21.800Z,99946.46
2018-03-20T09:31:28.448Z,99943.45
2018-03-20T09:32:34.148Z,99946.34
2018-03-20T09:33:39.858Z,99948.46
2018-03-20T09:34:45.571Z,99948.80
2018-03-20T09:35:52.037Z,99955.84
2018-03-20T09:36:57.738Z,99953.11
2018-03-20T09:38:03.494Z,99953.55
2018-03-20T09:39:09.222Z,99955.95
2018-03-20T09:40:14.929Z,99958.56
2018-03-20T09:41:20.633Z,99956.45
2018-03-20T09:42:27.090Z,99960.38
2018-03-20T09:43:32.780Z,99956.09
2018-03-20T09:44:38.947Z,99957.03
2018-03-20T09:45:44.679Z,99957.20
2018-03-20T09:46:50.374Z,99952.81
2018-03-20T09:47:56.064Z,99963.91
2018-03-20T09:49:01.772Z,99964.55
2018-03-20T09:50:07.669Z,99960.81
2018-03-20T09:51:14.180Z,99963.25
2018-03-20T09:52:19.876Z,99964.50
2018-03-20T09:53:26.404Z,99957.95
2018-03-20T09:54:31.793Z,99965.54
2018-03-20T09:55:37.484Z,99966.73
2018-03-20T09:56:43.220Z,99968.05
2018-03-20T09:57:48.971Z,99977.41
2018-03-20T09:58:54.667Z,99972.84
2018-03-20T10:00:00.372Z,99974.81
2018-03-20T10:01:06.076Z,99971.22
2018-03-20T10:02:11.793Z,99973.23
2018-03-20T10:03:17.498Z,99973.02
2018-03-20T10:04:23.205Z,99975.97
2018-03-20T10:05:28.924Z,99975.14
2018-03-20T10:06:34.617Z,99971.36
2018-03-20T10:07:41.100Z,99976.98
2018-03-20T10:08:46.816Z,99972.30
2018-03-20T10:09:53.298Z,99975.27
2018-03-20T10:10:58.992Z,99979.02
2018-03-20T10:12:04.744Z,99980.18
2018-03-20T10:13:10.437Z,99981.30
2018-03-20T10:14:16.140Z,99985.48
2018-03-20T10:15:21.861Z,99978.44
2018-03-20T10:16:27.557Z,99983.75
2018-03-20T10:17:33.285Z,99981.16
2018-03-20T10:18:38.989Z,99984.48
2018-03-20T10:19:45.461Z,99987.81
2018-03-20T10:20:51.166Z,99983.66
2018-03-20T10:21:56.876Z,99984.69
2018-03-20T10:23:02.612Z,99983.83
2018-03-20T10:24:08.325Z,99989.98
2018-03-20T10:25:14.044Z,99991.69
2018-03-20T10:26:19.545Z,99984.55
2018-03-20T10:27:25.451Z,99992.17
2018-03-20T10:28:31.287Z,99990.43
2018-03-20T10:29:37.033Z,99995.66
2018-03-20T10:30:42.912Z,99990.52
2018-03-20T10:31:48.610Z,99991.09
2018-03-20T10:32:55.078Z,99993.39
2018-03-20T10:34:00.796Z,99995.53
2018-03-20T10:35:06.515Z,99994.83
2018-03-20T10:36:12.234Z,99995.20
2018-03-20T10:37:17.933Z,99993.91
2018-03-20T10:38:23.726Z,99991.03
2018-03-20T10:39:29.721Z,99997.95
2018-03-20T10:40:35.426Z,99998.94
2018-03-20T10:41:41.126Z,99998.30
2018-03-20T10:42:46.850Z,99999.85
2018-03-20T10:43:52.575Z,100000.44
2018-03-20T10:44:58.561Z,100003.20
2018-03-20T10:46:04.269Z,100003.39
2018-03-20T10:47:09.999Z,100005.42
2018-03-20T10:48:16.610Z,100008.94
2018-03-20T10:49:22.372Z,100009.25
2018-03-20T10:50:28.113Z,100014.34
2018-03-20T10:51:33.891Z,100012.72
2018-03-20T10:52:40.379Z,100012.47
2018-03-20T10:53:46.102Z,100016.73
2018-03-20T10:54:51.816Z,100018.48
2018-03-20T10:55:58.312Z,100020.61
2018-03-20T10:57:04.042Z,100019.84
2018-03-20T10:58:09.748Z,100026.87
2018-03-20T10:59:16.280Z,100026.10
2018-03-20T11:00:27.437Z,100028.41
2018-03-20T11:01:33.001Z,100026.26
2018-03-20T11:02:44.369Z,100026.00
2018-03-20T11:03:50.093Z,100027.74
2018-03-20T11:04:56.600Z,100027.16
2018-03-20T11:06:03.096Z,100029.73
2018-03-20T11:07:08.820Z,100033.09
2018-03-20T11:08:14.536Z,100032.06
2018-03-20T11:09:21.016Z,100033.63
2018-03-20T11:10:26.822Z,100032.66
2018-03-20T11:11:32.717Z,100037.66
2018-03-20T11:12:38.486Z,100033.17
2018-03-20T11:13:44.228Z,100039.44
2018-03-20T11:14:49.936Z,100043.46
2018-03-20T11:15:55.673Z,100047.41
2018-03-20T11:17:01.409Z,100040.37
2018-03-20T11:18:07.131Z,100042.22
2018-03-20T11:19:13.614Z,100047.28
2018-03-20T11:20:19.328Z,100041.89
2018-03-20T11:21:25.828Z,100043.39
2018-03-20T11:22:31.569Z,100038.52
2018-03-20T11:23:37.293Z,100045.45
2018-03-20T11:24:43.039Z,100046.06
2018-03-20T11:25:48.956Z,100037.92
2018-03-20T11:26:54.514Z,100046.70
2018-03-20T11:28:00.301Z,100052.43
2018-03-20T11:29:06.007Z,100053.35
2018-03-20T11:30:11.714Z,100046.45
2018-03-20T11:31:18.248Z,100051.16
2018-03-20T11:32:23.965Z,100057.08
2018-03-20T11:33:29.750Z,100061.05
2018-03-20T11:34:36.634Z,100059.91
2018-03-20T11:35:42.690Z,100063.67
2018-03-20T11:36:48.412Z,100064.06
2018-03-20T11:37:54.884Z,100069.37
2018-03-20T11:39:00.643Z,100065.28
2018-03-20T11:40:06.363Z,100070.02
2018-03-20T11:41:12.079Z,100076.86
2018-03-20T11:42:18.574Z,100081.41
2018-03-20T11:43:23.959Z,100076.55
2018-03-20T11:44:29.521Z,100081.50
2018-03-20T11:45:35.993Z,100079.31
2018-03-20T11:46:41.743Z,100081.52
2018-03-20T11:47:47.448Z,100088.88
2018-03-20T11:48:53.934Z,100085.34
2018-03-20T11:49:59.657Z,100090.02
2018-03-20T11:51:06.144Z,100093.00
2018-03-20T11:52:11.868Z,100087.50
2018-03-20T11:53:17.593Z,100089.97
2018-03-20T11:54:24.080Z,100089.44
2018-03-20T11:55:29.814Z,100090.02
2018-03-20T11:56:35.524Z,100091.69
2018-03-20T11:57:42.016Z,100094.08
2018-03-20T11:58:47.756Z,100102.95
2018-03-20T11:59:53.469Z,100103.00
2018-03-20T12:00:59.983Z,100098.01
2018-03-20T12:02:05.184Z,100102.16
2018-03-20T12:03:10.909Z,100107.66
2018-03-20T12:04:17.796Z,100103.72
2018-03-20T12:05:23.524Z,100109.48
2018-03-20T12:06:30.032Z,100111.16
2018-03-20T12:07:34.853Z,100116.62
2018-03-20T12:08:51.013Z,100118.29
2018-03-20T12:09:56.742Z,100115.73
2018-03-20T12:11:02.482Z,100111.38
2018-03-20T12:12:08.228Z,100116.09
2018-03-20T12:13:14.021Z,100117.80
2018-03-20T12:14:19.756Z,100120.22
2018-03-20T12:15:25.484Z,100120.52
2018-03-20T12:16:31.197Z,100118.94
2018-03-20T12:17:36.929Z,100122.67
2018-03-20T12:18:42.636Z,100123.81
2018-03-20T12:19:48.350Z,100128.59
2018-03-20T12:20:55.075Z,100129.63
2018-03-20T12:22:00.806Z,100134.95
2018-03-20T12:23:05.890Z,100141.20
2018-03-20T12:24:11.613Z,100132.41
2018-03-20T12:25:17.383Z,100144.70
2018-03-20T12:26:23.253Z,100143.31
2018-03-20T12:27:28.992Z,100140.75
2018-03-20T12:28:35.511Z,100142.58
2018-03-20T12:29:41.288Z,100146.86
2018-03-20T12:30:47.781Z,100147.70
2018-03-20T12:31:53.527Z,100150.16
2018-03-20T12:32:59.414Z,100156.42
2018-03-20T12:34:05.150Z,100159.25
2018-03-20T12:35:10.940Z,100155.94
2018-03-20T12:36:16.859Z,100154.39
2018-03-20T12:37:23.338Z,100161.02
2018-03-20T12:38:29.044Z,100164.09
2018-03-20T12:39:34.779Z,100160.91
2018-03-20T12:40:40.563Z,100162.31
2018-03-20T12:41:46.278Z,100165.19
2018-03-20T12:42:52.828Z,100170.98
2018-03-20T12:43:58.537Z,100174.17
2018-03-20T12:45:04.058Z,100170.81
2018-03-20T12:46:09.466Z,100172.61
2018-03-20T12:47:15.173Z,100183.05
2018-03-20T12:48:20.885Z,100179.16
2018-03-20T12:49:26.607Z,100184.86
2018-03-20T12:50:33.054Z,100190.55
2018-03-20T12:51:38.790Z,100189.25
2018-03-20T12:52:44.505Z,100192.84
2018-03-20T12:53:50.204Z,100194.00
2018-03-20T12:54:56.230Z,100200.21
2018-03-20T12:56:01.961Z,100197.71
2018-03-20T12:57:07.674Z,100199.00